createdAt,value
2023-02-22T00:00:18.629Z,9.00
2023-02-22T00:02:47.709Z,9.00
2023-02-22T00:05:16.361Z,9.00
2023-02-22T00:07:44.465Z,9.00
2023-02-22T00:10:13.363Z,9.00
2023-02-22T00:12:41.276Z,9.00
2023-02-22T00:15:09.439Z,9.00
2023-02-22T00:17:36.310Z,8.90
2023-02-22T00:20:05.984Z,9.10
2023-02-22T00:22:33.108Z,9.00
2023-02-22T00:24:59.872Z,9.00
2023-02-22T00:27:26.614Z,8.80
2023-02-22T00:29:55.855Z,8.90
2023-02-22T00:32:23.289Z,8.90
2023-02-22T00:34:53.158Z,8.90
2023-02-22T00:37:20.925Z,8.80
2023-02-22T00:39:47.839Z,8.70
2023-02-22T00:42:14.962Z,8.70
2023-02-22T00:44:41.776Z,8.80
2023-02-22T00:47:09.008Z,8.90
2023-02-22T00:49:36.653Z,8.80
2023-02-22T00:52:04.594Z,8.90
2023-02-22T00:54:32.050Z,8.80
2023-02-22T00:56:59.100Z,8.80
2023-02-22T00:59:26.693Z,8.80
2023-02-22T01:01:53.838Z,8.90
2023-02-22T01:04:20.612Z,8.80
2023-02-22T01:06:47.565Z,8.90
2023-02-22T01:09:14.575Z,8.70
2023-02-22T01:11:42.276Z,8.60
2023-02-22T01:14:09.370Z,8.90
2023-02-22T01:16:36.542Z,8.60
2023-02-22T01:19:03.562Z,8.60
2023-02-22T01:21:30.202Z,8.50
2023-02-22T01:23:57.052Z,8.50
2023-02-22T01:26:23.722Z,8.40
2023-02-22T01:28:51.125Z,8.40
2023-02-22T01:31:18.123Z,8.50
2023-02-22T01:33:45.165Z,8.40
2023-02-22T01:36:11.812Z,8.60
2023-02-22T01:38:38.961Z,8.80
2023-02-22T01:41:06.163Z,8.30
2023-02-22T01:43:33.337Z,8.30
2023-02-22T01:46:02.522Z,8.20
2023-02-22T01:48:41.075Z,8.00
2023-02-22T01:51:11.895Z,8.10
2023-02-22T01:53:44.003Z,8.10
2023-02-22T01:56:12.009Z,8.00
2023-02-22T01:58:42.113Z,8.00
2023-02-22T02:01:09.801Z,8.00
2023-02-22T02:03:39.530Z,7.80
2023-02-22T02:06:11.447Z,7.80
2023-02-22T02:08:49.152Z,7.80
2023-02-22T02:11:19.292Z,7.70
2023-02-22T02:13:49.122Z,7.90
2023-02-22T02:16:16.704Z,7.60
2023-02-22T02:18:43.420Z,7.70
2023-02-22T02:21:40.272Z,7.70
2023-02-22T02:24:27.693Z,7.60
2023-02-22T02:27:08.477Z,7.60
2023-02-22T02:30:08.874Z,7.60
2023-02-22T02:32:45.047Z,7.60
2023-02-22T02:35:20.798Z,6.10
2023-02-22T02:37:56.063Z,7.50
2023-02-22T02:40:30.322Z,7.40
2023-02-22T02:43:04.482Z,7.50
2023-02-22T02:45:36.301Z,7.60
2023-02-22T02:48:06.978Z,7.60
2023-02-22T02:50:40.882Z,7.00
2023-02-22T02:53:09.706Z,7.60
2023-02-22T02:55:37.287Z,7.70
2023-02-22T02:58:05.197Z,7.40
2023-02-22T03:00:38.677Z,7.40
2023-02-22T03:03:23.193Z,7.00
2023-02-22T03:06:10.991Z,7.40
2023-02-22T03:08:43.352Z,7.40
2023-02-22T03:11:14.726Z,7.30
2023-02-22T03:13:51.007Z,7.40
2023-02-22T03:16:21.840Z,7.40
2023-02-22T03:18:54.302Z,7.40
2023-02-22T03:21:27.516Z,7.40
2023-02-22T03:24:04.589Z,7.40
2023-02-22T03:26:37.686Z,7.50
2023-02-22T03:29:07.615Z,7.50
2023-02-22T03:31:38.811Z,7.40
2023-02-22T03:34:10.501Z,7.40
2023-02-22T03:36:42.506Z,7.40
2023-02-22T03:39:15.343Z,7.50
2023-02-22T03:41:48.152Z,7.50
2023-02-22T03:44:19.829Z,7.50
2023-02-22T03:46:50.627Z,7.50
2023-02-22T03:49:26.374Z,7.40
2023-02-22T03:51:53.386Z,7.40
2023-02-22T03:54:20.098Z,7.40
2023-02-22T03:56:52.640Z,7.40
2023-02-22T03:59:24.573Z,7.40
2023-02-22T04:01:51.389Z,7.40
2023-02-22T04:04:18.808Z,7.40
2023-02-22T04:06:47.290Z,7.30
2023-02-22T04:09:13.973Z,7.30
2023-02-22T04:11:40.802Z,7.30
2023-02-22T04:14:07.862Z,7.40
2023-02-22T04:16:34.550Z,7.30
2023-02-22T04:19:01.244Z,7.40
2023-02-22T04:21:28.582Z,7.30
2023-02-22T04:23:55.218Z,7.40
2023-02-22T04:26:21.874Z,7.30
2023-02-22T04:28:48.567Z,7.30
2023-02-22T04:31:16.158Z,7.30
2023-02-22T04:33:43.007Z,7.20
2023-02-22T04:36:10.534Z,7.20
2023-02-22T04:38:37.887Z,7.10
2023-02-22T04:41:04.875Z,7.10
2023-02-22T04:43:31.455Z,6.90
2023-02-22T04:45:58.124Z,7.00
2023-02-22T04:48:24.774Z,7.20
2023-02-22T04:50:51.526Z,7.10
2023-02-22T04:53:18.329Z,7.30
2023-02-22T04:55:45.712Z,7.10
2023-02-22T04:58:12.648Z,7.10
2023-02-22T05:00:39.245Z,7.00
2023-02-22T05:03:06.126Z,7.10
2023-02-22T05:05:32.795Z,7.00
2023-02-22T05:07:59.446Z,7.00
2023-02-22T05:10:26.047Z,7.00
2023-02-22T05:12:53.364Z,6.90
2023-02-22T05:15:22.182Z,6.90
2023-02-22T05:17:49.030Z,6.90
2023-02-22T05:20:23.767Z,6.90
2023-02-22T05:22:51.378Z,6.90
2023-02-22T05:25:19.682Z,6.80
2023-02-22T05:27:50.364Z,6.80
2023-02-22T05:30:17.984Z,6.90
2023-02-22T05:32:47.026Z,7.30
2023-02-22T05:35:14.474Z,7.00
2023-02-22T05:37:41.524Z,7.00
2023-02-22T05:40:08.882Z,7.30
2023-02-22T05:42:35.543Z,7.20
2023-02-22T05:45:03.015Z,7.10
2023-02-22T05:47:30.299Z,7.10
2023-02-22T05:49:56.951Z,7.10
2023-02-22T05:52:23.578Z,7.10
2023-02-22T05:54:50.361Z,7.20
2023-02-22T05:57:16.997Z,7.20
2023-02-22T05:59:43.776Z,7.10
2023-02-22T06:02:10.506Z,7.20
2023-02-22T06:04:37.796Z,7.30
2023-02-22T06:07:04.427Z,7.20
2023-02-22T06:09:30.989Z,7.30
2023-02-22T06:11:57.723Z,7.20
2023-02-22T06:14:24.388Z,7.30
2023-02-22T06:16:54.489Z,7.30
2023-02-22T06:19:21.245Z,7.30
2023-02-22T06:21:51.687Z,7.50
2023-02-22T06:24:18.882Z,7.30
2023-02-22T06:26:45.882Z,7.30
2023-02-22T06:29:12.618Z,7.30
2023-02-22T06:31:39.361Z,7.30
2023-02-22T06:34:06.066Z,7.40
2023-02-22T06:36:32.730Z,7.40
2023-02-22T06:39:00.014Z,7.40
2023-02-22T06:41:26.667Z,7.50
2023-02-22T06:43:53.364Z,7.50
2023-02-22T06:46:20.788Z,7.50
2023-02-22T06:48:47.482Z,7.50
2023-02-22T06:51:14.261Z,7.60
2023-02-22T06:53:40.989Z,6.90
2023-02-22T06:56:08.326Z,7.70
2023-02-22T06:58:35.043Z,7.70
2023-02-22T07:01:03.126Z,7.90
2023-02-22T07:03:29.883Z,7.70
2023-02-22T07:05:56.532Z,10.10
2023-02-22T07:08:23.137Z,7.70
2023-02-22T07:10:50.021Z,7.80
2023-02-22T07:13:17.387Z,7.90
2023-02-22T07:15:44.276Z,7.90
2023-02-22T07:18:11.413Z,7.90
2023-02-22T07:20:38.149Z,7.90
2023-02-22T07:23:05.723Z,8.00
2023-02-22T07:25:32.384Z,8.00
2023-02-22T07:27:59.903Z,8.10
2023-02-22T07:30:30.280Z,8.10
2023-02-22T07:32:58.382Z,8.10
2023-02-22T07:35:27.411Z,8.20
2023-02-22T07:37:55.970Z,8.10
2023-02-22T07:40:24.613Z,8.20
2023-02-22T07:42:55.772Z,8.20
2023-02-22T07:45:23.715Z,8.10
2023-02-22T07:47:51.291Z,8.30
2023-02-22T07:50:20.026Z,8.40
2023-02-22T07:52:46.820Z,8.40
2023-02-22T07:55:16.059Z,8.40
2023-02-22T07:57:43.183Z,8.30
2023-02-22T08:00:11.428Z,8.30
2023-02-22T08:02:38.132Z,8.30
2023-02-22T08:05:06.896Z,8.30
2023-02-22T08:07:33.518Z,8.50
2023-02-22T08:10:00.167Z,8.40
2023-02-22T08:12:26.787Z,8.40
2023-02-22T08:14:53.489Z,8.40
2023-02-22T08:17:20.153Z,8.40
2023-02-22T08:19:46.777Z,8.40
2023-02-22T08:22:14.094Z,8.40
2023-02-22T08:27:07.979Z,8.50
2023-02-22T08:29:34.654Z,8.60
2023-02-22T08:32:01.522Z,8.60
2023-02-22T08:34:28.362Z,8.70
2023-02-22T08:36:55.280Z,8.70
2023-02-22T08:39:22.577Z,8.80
2023-02-22T08:41:49.329Z,8.60
2023-02-22T08:44:16.063Z,8.80
2023-02-22T08:46:42.707Z,8.90
2023-02-22T08:49:09.357Z,8.90
2023-02-22T08:51:36.474Z,9.00
2023-02-22T08:54:06.029Z,9.10
2023-02-22T08:56:33.319Z,9.00
2023-02-22T08:58:59.955Z,9.10
2023-02-22T09:01:33.394Z,9.10
2023-02-22T09:04:00.661Z,9.10
2023-02-22T09:06:27.866Z,9.10
2023-02-22T09:08:54.612Z,9.20
2023-02-22T09:11:21.306Z,9.20
2023-02-22T09:13:48.681Z,9.20
2023-02-22T09:16:15.382Z,9.20
2023-02-22T09:18:44.267Z,9.30
2023-02-22T09:21:11.889Z,9.30
2023-02-22T09:23:38.534Z,9.40
2023-02-22T09:26:07.880Z,9.40
2023-02-22T09:28:34.565Z,9.50
2023-02-22T09:31:01.910Z,9.50
2023-02-22T09:33:28.588Z,9.50
2023-02-22T09:35:55.238Z,9.50
2023-02-22T09:38:24.102Z,9.50
2023-02-22T09:40:53.674Z,9.70
2023-02-22T09:43:34.965Z,9.80
2023-02-22T09:46:12.966Z,9.90
2023-02-22T09:48:51.274Z,10.00
2023-02-22T09:51:20.194Z,9.70
2023-02-22T09:53:49.704Z,10.10
2023-02-22T09:56:19.747Z,10.40
2023-02-22T09:58:48.306Z,10.20
2023-02-22T10:01:22.557Z,9.80
2023-02-22T10:03:53.807Z,10.40
2023-02-22T10:06:22.366Z,10.30
2023-02-22T10:08:53.072Z,10.20
2023-02-22T10:11:37.329Z,10.30
2023-02-22T10:14:25.169Z,10.40
2023-02-22T10:17:00.286Z,10.50
2023-02-22T10:19:35.371Z,10.50
2023-02-22T10:22:31.661Z,10.70
2023-02-22T10:25:04.300Z,10.60
2023-02-22T10:27:36.894Z,10.70
2023-02-22T10:30:27.823Z,10.90
2023-02-22T10:33:00.997Z,11.00
2023-02-22T10:35:32.488Z,11.00
2023-02-22T10:38:06.396Z,10.70
2023-02-22T10:40:33.149Z,10.70
2023-02-22T10:43:04.098Z,10.60
2023-02-22T10:45:31.975Z,10.90
2023-02-22T10:48:07.736Z,10.90
2023-02-22T10:50:36.849Z,11.00
2023-02-22T10:53:03.746Z,11.40
2023-02-22T10:55:30.488Z,10.90
2023-02-22T10:58:03.834Z,10.90
2023-02-22T11:00:36.531Z,10.40
2023-02-22T11:03:16.238Z,10.80
2023-02-22T11:05:43.312Z,10.70
2023-02-22T11:08:32.426Z,10.90
2023-02-22T11:11:02.650Z,10.70
2023-02-22T11:13:35.336Z,10.70
2023-02-22T11:16:18.801Z,10.20
2023-02-22T11:18:47.351Z,10.60
2023-02-22T11:21:22.494Z,10.70
2023-02-22T11:24:02.085Z,10.90
2023-02-22T11:26:28.996Z,10.70
2023-02-22T11:28:56.457Z,10.40
2023-02-22T11:31:26.442Z,10.80
2023-02-22T11:36:32.399Z,10.90
2023-02-22T11:39:00.211Z,11.00
2023-02-22T11:41:28.409Z,10.80
2023-02-22T11:44:11.139Z,10.90
2023-02-22T11:46:42.074Z,11.00
2023-02-22T11:49:11.738Z,10.70
2023-02-22T11:52:07.721Z,10.70
2023-02-22T11:54:56.396Z,10.70
2023-02-22T11:57:35.977Z,10.70
2023-02-22T12:00:15.397Z,10.70
2023-02-22T12:03:12.144Z,10.70
2023-02-22T12:05:58.830Z,10.60
2023-02-22T12:08:35.131Z,10.70
2023-02-22T12:11:09.437Z,10.60
2023-02-22T12:13:55.180Z,10.70
2023-02-22T12:16:34.483Z,10.80
2023-02-22T12:19:11.731Z,10.80
2023-02-22T12:21:43.433Z,11.00
2023-02-22T12:24:15.704Z,10.90
2023-02-22T12:26:46.796Z,10.60
2023-02-22T12:29:22.188Z,10.80
2023-02-22T12:31:52.831Z,11.00
2023-02-22T12:34:29.943Z,10.80
2023-02-22T12:37:05.662Z,10.90
2023-02-22T12:39:53.163Z,11.10
2023-02-22T12:42:28.519Z,10.90
2023-02-22T12:45:01.765Z,11.10
2023-02-22T12:47:33.979Z,11.20
2023-02-22T12:50:11.319Z,11.10
2023-02-22T12:52:45.628Z,11.10
2023-02-22T12:55:17.789Z,11.10
2023-02-22T12:57:48.783Z,10.80
2023-02-22T13:00:22.604Z,11.20
2023-02-22T13:02:58.239Z,11.30
2023-02-22T13:05:25.117Z,11.40
2023-02-22T13:08:05.479Z,11.40
2023-02-22T13:11:06.546Z,11.50
2023-02-22T13:13:42.251Z,11.30
2023-02-22T13:16:21.696Z,11.10
2023-02-22T13:18:53.336Z,11.10
2023-02-22T13:21:24.444Z,11.20
2023-02-22T13:24:02.814Z,10.80
2023-02-22T13:26:38.138Z,11.30
2023-02-22T13:29:09.759Z,11.20
2023-02-22T13:32:01.959Z,11.20
2023-02-22T13:34:56.935Z,11.20
2023-02-22T13:37:47.685Z,10.80
2023-02-22T13:40:50.890Z,10.90
2023-02-22T13:43:48.821Z,10.90
2023-02-22T13:46:42.980Z,12.10
2023-02-22T13:49:29.790Z,11.00
2023-02-22T13:51:59.430Z,11.20
2023-02-22T13:54:33.691Z,11.00
2023-02-22T13:57:02.493Z,11.10
2023-02-22T13:59:34.377Z,11.10
2023-02-22T14:02:03.850Z,11.00
2023-02-22T14:04:40.360Z,11.20
2023-02-22T14:07:49.977Z,10.70
2023-02-22T14:10:49.208Z,11.10
2023-02-22T14:13:18.043Z,11.10
2023-02-22T14:16:18.556Z,11.30
2023-02-22T14:18:49.063Z,11.10
2023-02-22T14:21:19.734Z,11.40
2023-02-22T14:23:47.815Z,11.10
2023-02-22T14:26:19.931Z,10.90
2023-02-22T14:28:53.721Z,11.00
2023-02-22T14:31:35.593Z,11.50
2023-02-22T14:34:13.690Z,11.30
2023-02-22T14:36:50.912Z,11.10
2023-02-22T14:39:31.055Z,11.20
2023-02-22T14:42:07.306Z,11.00
2023-02-22T14:44:40.193Z,11.00
2023-02-22T14:47:14.229Z,10.90
2023-02-22T14:49:48.084Z,11.00
2023-02-22T14:52:24.209Z,11.00
2023-02-22T14:55:05.975Z,11.00
2023-02-22T14:57:44.422Z,10.80
2023-02-22T15:00:22.493Z,10.70
2023-02-22T15:02:56.475Z,10.80
2023-02-22T15:05:23.127Z,10.70
2023-02-22T15:07:55.013Z,10.70
2023-02-22T15:10:27.998Z,10.50
2023-02-22T15:13:09.894Z,10.50
2023-02-22T15:15:39.981Z,10.40
2023-02-22T15:18:22.158Z,10.30
2023-02-22T15:20:55.412Z,10.40
2023-02-22T15:23:24.913Z,10.30
2023-02-22T15:25:51.560Z,9.80
2023-02-22T15:28:18.988Z,10.20
2023-02-22T15:30:46.061Z,10.00
2023-02-22T15:33:16.723Z,10.10
2023-02-22T15:35:44.450Z,10.20
2023-02-22T15:38:20.876Z,10.20
2023-02-22T15:40:58.459Z,10.00
2023-02-22T15:43:27.795Z,10.10
2023-02-22T15:45:54.910Z,10.50
2023-02-22T15:48:22.747Z,10.20
2023-02-22T15:51:06.450Z,10.10
2023-02-22T15:53:41.457Z,10.10
2023-02-22T15:56:13.625Z,10.10
2023-02-22T15:58:41.157Z,10.20
2023-02-22T16:01:11.705Z,10.20
2023-02-22T16:03:45.128Z,10.10
2023-02-22T16:06:14.832Z,10.10
2023-02-22T16:08:54.417Z,10.10
2023-02-22T16:11:29.139Z,10.00
2023-02-22T16:14:00.142Z,10.00
2023-02-22T16:16:30.476Z,9.70
2023-02-22T16:19:24.063Z,10.00
2023-02-22T16:21:53.096Z,10.00
2023-02-22T16:24:25.924Z,9.90
2023-02-22T16:27:06.933Z,9.90
2023-02-22T16:29:33.827Z,9.90
2023-02-22T16:32:01.462Z,9.80
2023-02-22T16:34:28.976Z,9.80
2023-02-22T16:36:56.458Z,9.70
2023-02-22T16:39:26.450Z,9.70
2023-02-22T16:41:54.519Z,9.70
2023-02-22T16:44:22.387Z,9.70
2023-02-22T16:46:49.022Z,9.80
2023-02-22T16:49:15.664Z,9.70
2023-02-22T16:51:45.619Z,9.60
2023-02-22T16:54:13.721Z,9.60
2023-02-22T16:56:40.954Z,9.60
2023-02-22T16:59:10.991Z,9.50
2023-02-22T17:01:37.623Z,9.40
2023-02-22T17:04:13.749Z,9.40
2023-02-22T17:06:40.543Z,9.40
2023-02-22T17:09:07.849Z,9.40
2023-02-22T17:11:35.486Z,9.30
2023-02-22T17:14:02.402Z,9.30
2023-02-22T17:16:29.222Z,9.30
2023-02-22T17:18:55.944Z,9.20
2023-02-22T17:21:22.625Z,9.20
2023-02-22T17:23:49.405Z,9.10
2023-02-22T17:26:17.325Z,9.10
2023-02-22T17:28:44.398Z,9.20
2023-02-22T17:31:19.259Z,9.00
2023-02-22T17:33:46.165Z,8.90
2023-02-22T17:36:12.970Z,8.90
2023-02-22T17:38:41.040Z,8.90
2023-02-22T17:41:07.873Z,8.90
2023-02-22T17:43:35.298Z,8.80
2023-02-22T17:46:07.175Z,8.80
2023-02-22T17:48:34.199Z,8.80
2023-02-22T17:51:05.996Z,8.90
2023-02-22T17:53:32.811Z,8.90
2023-02-22T17:56:04.282Z,8.80
2023-02-22T17:58:31.286Z,8.80
2023-02-22T18:00:58.787Z,8.70
2023-02-22T18:03:26.198Z,8.70
2023-02-22T18:05:56.141Z,8.70
2023-02-22T18:08:23.964Z,8.60
2023-02-22T18:10:55.402Z,8.50
2023-02-22T18:13:23.559Z,8.60
2023-02-22T18:15:50.280Z,8.50
2023-02-22T18:18:19.141Z,8.50
2023-02-22T18:20:50.638Z,8.50
2023-02-22T18:23:20.202Z,8.70
2023-02-22T18:25:54.468Z,8.50
2023-02-22T18:28:30.865Z,8.50
2023-02-22T18:30:58.775Z,8.40
2023-02-22T18:33:26.586Z,8.40
2023-02-22T18:35:53.467Z,8.40
2023-02-22T18:38:22.962Z,8.40
2023-02-22T18:40:57.764Z,8.40
2023-02-22T18:43:24.567Z,8.30
2023-02-22T18:45:51.227Z,8.30
2023-02-22T18:48:17.849Z,8.20
2023-02-22T18:50:45.228Z,8.30
2023-02-22T18:53:11.975Z,8.30
2023-02-22T18:55:38.840Z,8.20
2023-02-22T18:58:05.613Z,8.30
2023-02-22T19:00:34.910Z,8.30
2023-02-22T19:03:01.586Z,8.30
2023-02-22T19:05:28.377Z,8.20
2023-02-22T19:07:55.771Z,8.20
2023-02-22T19:10:22.438Z,8.10
2023-02-22T19:12:49.244Z,8.10
2023-02-22T19:15:16.153Z,8.10
2023-02-22T19:17:42.978Z,8.10
2023-02-22T19:20:10.305Z,7.70
2023-02-22T19:25:04.892Z,8.00
2023-02-22T19:27:33.390Z,8.00
2023-02-22T19:30:00.307Z,7.90
2023-02-22T19:32:27.155Z,7.90
2023-02-22T19:35:01.332Z,7.90
2023-02-22T19:37:33.333Z,7.80
2023-02-22T19:40:00.589Z,7.80
2023-02-22T19:42:27.916Z,7.70
2023-02-22T19:44:54.594Z,7.80
2023-02-22T19:47:21.918Z,7.70
2023-02-22T19:49:49.254Z,7.40
2023-02-22T19:52:16.311Z,7.70
2023-02-22T19:54:43.965Z,7.70
2023-02-22T19:57:11.069Z,7.60
2023-02-22T19:59:38.836Z,7.60
2023-02-22T20:02:07.762Z,7.50
2023-02-22T20:04:36.611Z,7.50
2023-02-22T20:07:03.276Z,7.50
2023-02-22T20:09:35.575Z,7.50
2023-02-22T20:12:03.432Z,8.10
2023-02-22T20:14:30.352Z,7.10
2023-02-22T20:16:58.904Z,7.50
2023-02-22T20:19:26.584Z,7.40
2023-02-22T20:21:55.289Z,7.40
2023-02-22T20:24:22.824Z,7.40
2023-02-22T20:26:50.203Z,7.40
2023-02-22T20:29:18.460Z,7.40
2023-02-22T20:31:48.827Z,7.30
2023-02-22T20:34:16.226Z,7.40
2023-02-22T20:36:42.845Z,7.40
2023-02-22T20:39:12.631Z,7.40
2023-02-22T20:41:40.873Z,7.30
2023-02-22T20:44:10.362Z,7.30
2023-02-22T20:46:37.139Z,7.30
2023-02-22T20:49:07.360Z,7.30
2023-02-22T20:51:35.058Z,7.30
2023-02-22T20:54:01.777Z,7.30
2023-02-22T20:56:30.630Z,7.40
2023-02-22T20:58:59.230Z,7.20
2023-02-22T21:01:26.623Z,7.20
2023-02-22T21:03:53.410Z,7.30
2023-02-22T21:06:21.678Z,7.20
2023-02-22T21:08:52.873Z,7.10
2023-02-22T21:11:21.053Z,7.10
2023-02-22T21:13:47.863Z,7.00
2023-02-22T21:16:17.999Z,6.70
2023-02-22T21:18:44.842Z,7.00
2023-02-22T21:21:11.692Z,6.90
2023-02-22T21:23:39.317Z,7.00
2023-02-22T21:26:07.401Z,7.40
2023-02-22T21:28:50.567Z,6.90
2023-02-22T21:31:20.291Z,6.90
2023-02-22T21:33:48.856Z,6.90
2023-02-22T21:36:15.784Z,6.90
2023-02-22T21:38:44.035Z,6.90
2023-02-22T21:41:12.486Z,6.90
2023-02-22T21:43:40.709Z,6.90
2023-02-22T21:46:09.927Z,6.70
2023-02-22T21:48:38.062Z,6.80
2023-02-22T21:51:09.030Z,7.30
2023-02-22T21:53:36.087Z,6.80
2023-02-22T21:56:04.809Z,6.70
2023-02-22T21:58:32.345Z,6.70
2023-02-22T22:01:05.622Z,6.70
2023-02-22T22:03:35.516Z,6.70
2023-02-22T22:06:06.412Z,6.70
2023-02-22T22:08:34.708Z,6.80
2023-02-22T22:11:01.341Z,6.60
2023-02-22T22:13:28.086Z,6.60
2023-02-22T22:15:56.526Z,6.50
2023-02-22T22:18:23.250Z,6.60
2023-02-22T22:20:51.168Z,6.50
2023-02-22T22:23:18.317Z,6.50
2023-02-22T22:25:45.268Z,6.50
2023-02-22T22:28:12.575Z,6.40
2023-02-22T22:30:39.781Z,6.40
2023-02-22T22:33:10.521Z,6.40
2023-02-22T22:35:38.502Z,6.30
2023-02-22T22:38:06.115Z,6.30
2023-02-22T22:40:33.601Z,6.30
2023-02-22T22:43:00.465Z,6.30
2023-02-22T22:45:27.175Z,6.30
2023-02-22T22:47:54.087Z,6.20
2023-02-22T22:50:25.885Z,6.20
2023-02-22T22:52:52.689Z,6.50
2023-02-22T22:55:19.464Z,7.00
2023-02-22T22:57:46.188Z,6.10
2023-02-22T23:00:27.130Z,7.80
2023-02-22T23:02:56.728Z,6.00
2023-02-22T23:05:27.178Z,6.10
2023-02-22T23:07:55.971Z,6.00
2023-02-22T23:10:26.333Z,6.00
2023-02-22T23:12:55.100Z,6.10
2023-02-22T23:15:22.495Z,6.00
2023-02-22T23:17:49.663Z,5.90
2023-02-22T23:20:16.446Z,5.80
2023-02-22T23:22:46.542Z,5.90
2023-02-22T23:25:15.039Z,5.90
2023-02-22T23:27:41.951Z,6.10
2023-02-22T23:30:14.168Z,5.80
2023-02-22T23:32:42.067Z,5.80
2023-02-22T23:35:10.977Z,5.80
2023-02-22T23:37:39.174Z,5.80
2023-02-22T23:40:16.378Z,5.80
2023-02-22T23:42:47.620Z,6.00
2023-02-22T23:45:21.982Z,5.70
2023-02-22T23:47:53.790Z,5.80
2023-02-22T23:50:25.668Z,5.80
2023-02-22T23:52:57.886Z,5.80
2023-02-22T23:55:26.532Z,5.70
2023-02-22T23:57:58.583Z,5.70
